Huvudsida
METAR-TAF:

METAR-TAF

Flygplatser :

Jekaterinburg, Ryssland

latitud: 56-50N, longitud: 060-38E, höjd: 237 m

Aktuellt väderrapport

Denna rapport gjordes för 27 minuter sedan, klockan 08:30 UTC
Vind 8 kt från väst
Temperatur -10°C
Fuktighet 92%
Tryck 1026 hPa
Sikt: 3600 m
Mulet på en höjd av 900 ft
lätt snö

METAR: USSS 160830Z 28004MPS 3600 -SN OVC009 M10/M11 Q1026 RESN R26R/490136 TEMPO 3100 -SN RMK QFE748/0998

Tid: 13:57 (08:57 UTC)

Väderprognos

Denna rapport gjordes för 44 minuter sedan, klockan 08:13 UTC
Prognos gäller från 16 kl. 09 UTC till 17 kl. 09 UTC
Vind 8 kt från väst
Sikt: 6000 m
Brutna moln på en höjd av 1100 ft
lätt snö
Från 16 kl. 1400 UTC
Vind 6 kt från väst
Sikt: 3100 m
lätt snö
Temporärt
från 16 kl. 20 UTC till 17 kl. 06 UTC
Brutna moln på en höjd av 400 ft

TAF: USSS 160813Z 1609/1709 28004MPS 6000 -SN BKN011 FM161400 28003MPS 3100 -SN TEMPO 1620/1706 BKN004

Aktuella väderrapporter och prognoser från 4000 flygplatser (METAR- och TAF-rapporter).

De tillgängliga stationerna syns som gula och röda prickar på kartan.

För musen över prickarna för att se namnen på stationerna.

Klicka sedan för att få väderrapporter och prognoser.

För att ändra kartan: Klicka på de gröna knapparna med ett svart kors på för att zooma in; den gröna knappen med ett streck på för att zooma ut; eller på de gröna pilarna för angränsande kartor.


METAR-TAF: